sensor_id;sensor_type;location;lat;lon;timestamp;temperature;humidity
14755;DHT22;7469;50.906;6.952;2023-12-29T00:01:16;10.40;99.90
14755;DHT22;7469;50.906;6.952;2023-12-29T00:03:44;10.40;99.90
14755;DHT22;7469;50.906;6.952;2023-12-29T00:06:12;10.40;99.90
14755;DHT22;7469;50.906;6.952;2023-12-29T00:08:40;10.40;99.90
14755;DHT22;7469;50.906;6.952;2023-12-29T00:11:16;10.40;99.90
14755;DHT22;7469;50.906;6.952;2023-12-29T00:13:45;10.50;99.90
14755;DHT22;7469;50.906;6.952;2023-12-29T00:16:14;10.50;99.90
14755;DHT22;7469;50.906;6.952;2023-12-29T00:18:42;10.50;99.90
14755;DHT22;7469;50.906;6.952;2023-12-29T00:21:10;10.60;99.90
14755;DHT22;7469;50.906;6.952;2023-12-29T00:23:39;10.60;99.90
14755;DHT22;7469;50.906;6.952;2023-12-29T00:26:08;10.60;99.90
14755;DHT22;7469;50.906;6.952;2023-12-29T00:28:36;10.60;99.90
14755;DHT22;7469;50.906;6.952;2023-12-29T00:31:07;10.70;99.90
14755;DHT22;7469;50.906;6.952;2023-12-29T00:33:35;10.70;99.90
14755;DHT22;7469;50.906;6.952;2023-12-29T00:36:04;10.70;99.90
14755;DHT22;7469;50.906;6.952;2023-12-29T00:38:32;10.70;99.90
14755;DHT22;7469;50.906;6.952;2023-12-29T00:41:00;10.80;99.90
14755;DHT22;7469;50.906;6.952;2023-12-29T00:43:31;10.70;99.90
14755;DHT22;7469;50.906;6.952;2023-12-29T00:46:00;10.80;99.90
14755;DHT22;7469;50.906;6.952;2023-12-29T00:48:28;10.80;99.90
14755;DHT22;7469;50.906;6.952;2023-12-29T00:50:56;10.80;99.90
14755;DHT22;7469;50.906;6.952;2023-12-29T00:53:24;10.90;99.90
14755;DHT22;7469;50.906;6.952;2023-12-29T00:55:53;10.90;99.90
14755;DHT22;7469;50.906;6.952;2023-12-29T00:58:20;10.90;99.90
14755;DHT22;7469;50.906;6.952;2023-12-29T01:00:50;10.90;99.90
14755;DHT22;7469;50.906;6.952;2023-12-29T01:03:18;10.90;99.90
14755;DHT22;7469;50.906;6.952;2023-12-29T01:05:50;10.90;99.90
14755;DHT22;7469;50.906;6.952;2023-12-29T01:08:18;10.90;99.90
14755;DHT22;7469;50.906;6.952;2023-12-29T01:10:46;10.90;99.90
14755;DHT22;7469;50.906;6.952;2023-12-29T01:13:14;10.90;99.90
14755;DHT22;7469;50.906;6.952;2023-12-29T01:15:42;10.90;99.90
14755;DHT22;7469;50.906;6.952;2023-12-29T01:18:12;10.90;99.90
14755;DHT22;7469;50.906;6.952;2023-12-29T01:20:41;10.90;99.90
14755;DHT22;7469;50.906;6.952;2023-12-29T01:23:09;10.90;99.90
14755;DHT22;7469;50.906;6.952;2023-12-29T01:25:37;10.90;99.90
14755;DHT22;7469;50.906;6.952;2023-12-29T01:28:05;11.00;99.90
14755;DHT22;7469;50.906;6.952;2023-12-29T01:30:34;10.90;99.90
14755;DHT22;7469;50.906;6.952;2023-12-29T01:33:02;11.00;99.90
14755;DHT22;7469;50.906;6.952;2023-12-29T01:35:32;10.90;99.90
14755;DHT22;7469;50.906;6.952;2023-12-29T01:38:01;10.90;99.90
14755;DHT22;7469;50.906;6.952;2023-12-29T01:40:29;10.90;99.90
14755;DHT22;7469;50.906;6.952;2023-12-29T01:42:57;10.90;99.90
14755;DHT22;7469;50.906;6.952;2023-12-29T01:45:26;10.80;99.90
14755;DHT22;7469;50.906;6.952;2023-12-29T01:47:54;10.80;99.90
14755;DHT22;7469;50.906;6.952;2023-12-29T01:50:22;10.80;99.90
14755;DHT22;7469;50.906;6.952;2023-12-29T01:52:54;10.80;99.90
14755;DHT22;7469;50.906;6.952;2023-12-29T01:55:24;10.80;99.90
14755;DHT22;7469;50.906;6.952;2023-12-29T01:57:54;10.80;99.90
14755;DHT22;7469;50.906;6.952;2023-12-29T02:00:23;10.80;99.90
14755;DHT22;7469;50.906;6.952;2023-12-29T02:02:51;10.80;99.90
14755;DHT22;7469;50.906;6.952;2023-12-29T02:05:20;10.80;99.90
14755;DHT22;7469;50.906;6.952;2023-12-29T02:07:51;10.90;99.90
14755;DHT22;7469;50.906;6.952;2023-12-29T02:10:21;10.90;99.90
14755;DHT22;7469;50.906;6.952;2023-12-29T02:12:50;10.90;99.90
14755;DHT22;7469;50.906;6.952;2023-12-29T02:15:20;10.90;99.90
14755;DHT22;7469;50.906;6.952;2023-12-29T02:17:55;10.90;99.90
14755;DHT22;7469;50.906;6.952;2023-12-29T02:20:25;10.90;99.90
14755;DHT22;7469;50.906;6.952;2023-12-29T02:22:53;11.00;99.90
14755;DHT22;7469;50.906;6.952;2023-12-29T02:25:22;11.00;99.90
14755;DHT22;7469;50.906;6.952;2023-12-29T02:27:54;11.00;99.90
14755;DHT22;7469;50.906;6.952;2023-12-29T02:30:29;11.00;99.90
14755;DHT22;7469;50.906;6.952;2023-12-29T02:33:00;11.00;99.90
14755;DHT22;7469;50.906;6.952;2023-12-29T02:35:32;11.00;99.90
14755;DHT22;7469;50.906;6.952;2023-12-29T02:38:01;11.00;99.90
14755;DHT22;7469;50.906;6.952;2023-12-29T02:40:30;11.10;99.90
14755;DHT22;7469;50.906;6.952;2023-12-29T02:42:58;11.00;99.90
14755;DHT22;7469;50.906;6.952;2023-12-29T02:45:27;11.00;99.90
14755;DHT22;7469;50.906;6.952;2023-12-29T02:47:55;11.00;99.90
14755;DHT22;7469;50.906;6.952;2023-12-29T02:50:23;11.10;99.90
14755;DHT22;7469;50.906;6.952;2023-12-29T02:52:51;11.10;99.90
14755;DHT22;7469;50.906;6.952;2023-12-29T02:55:19;11.10;99.90
14755;DHT22;7469;50.906;6.952;2023-12-29T02:57:48;11.10;99.90
14755;DHT22;7469;50.906;6.952;2023-12-29T03:00:17;11.20;99.90
14755;DHT22;7469;50.906;6.952;2023-12-29T03:02:45;11.10;99.90
14755;DHT22;7469;50.906;6.952;2023-12-29T03:05:14;11.10;99.90
14755;DHT22;7469;50.906;6.952;2023-12-29T03:07:42;11.10;99.90
14755;DHT22;7469;50.906;6.952;2023-12-29T03:10:10;11.10;99.90
14755;DHT22;7469;50.906;6.952;2023-12-29T03:12:38;11.20;99.90
14755;DHT22;7469;50.906;6.952;2023-12-29T03:15:08;11.20;99.90
14755;DHT22;7469;50.906;6.952;2023-12-29T03:17:36;11.20;99.90
14755;DHT22;7469;50.906;6.952;2023-12-29T03:20:06;11.30;99.90
14755;DHT22;7469;50.906;6.952;2023-12-29T03:22:34;11.30;99.90
14755;DHT22;7469;50.906;6.952;2023-12-29T03:25:02;11.30;99.90
14755;DHT22;7469;50.906;6.952;2023-12-29T03:27:31;11.30;99.90
14755;DHT22;7469;50.906;6.952;2023-12-29T03:29:59;11.30;99.90
14755;DHT22;7469;50.906;6.952;2023-12-29T03:32:28;11.30;99.90
14755;DHT22;7469;50.906;6.952;2023-12-29T03:34:56;11.30;99.90
14755;DHT22;7469;50.906;6.952;2023-12-29T03:37:24;11.30;99.90
14755;DHT22;7469;50.906;6.952;2023-12-29T03:39:52;11.40;99.90
14755;DHT22;7469;50.906;6.952;2023-12-29T03:42:20;11.40;99.90
14755;DHT22;7469;50.906;6.952;2023-12-29T03:44:48;11.30;99.90
14755;DHT22;7469;50.906;6.952;2023-12-29T03:47:16;11.40;99.90
14755;DHT22;7469;50.906;6.952;2023-12-29T03:49:45;11.40;99.90
14755;DHT22;7469;50.906;6.952;2023-12-29T03:52:13;11.40;99.90
14755;DHT22;7469;50.906;6.952;2023-12-29T03:54:41;11.40;99.90
14755;DHT22;7469;50.906;6.952;2023-12-29T03:57:09;11.40;99.90
14755;DHT22;7469;50.906;6.952;2023-12-29T03:59:39;11.40;99.90
14755;DHT22;7469;50.906;6.952;2023-12-29T04:02:07;11.40;99.90
14755;DHT22;7469;50.906;6.952;2023-12-29T04:04:37;11.40;99.90
14755;DHT22;7469;50.906;6.952;2023-12-29T04:07:06;11.40;99.90
14755;DHT22;7469;50.906;6.952;2023-12-29T04:09:34;11.40;99.90
14755;DHT22;7469;50.906;6.952;2023-12-29T04:12:03;11.40;99.90
14755;DHT22;7469;50.906;6.952;2023-12-29T04:14:31;11.40;99.90
14755;DHT22;7469;50.906;6.952;2023-12-29T04:16:59;11.30;99.90
14755;DHT22;7469;50.906;6.952;2023-12-29T04:19:29;11.30;99.90
14755;DHT22;7469;50.906;6.952;2023-12-29T04:21:57;11.30;99.90
14755;DHT22;7469;50.906;6.952;2023-12-29T04:24:27;11.30;99.90
14755;DHT22;7469;50.906;6.952;2023-12-29T04:26:55;11.30;99.90
14755;DHT22;7469;50.906;6.952;2023-12-29T04:29:23;11.30;99.90
14755;DHT22;7469;50.906;6.952;2023-12-29T04:31:51;11.30;99.90
14755;DHT22;7469;50.906;6.952;2023-12-29T04:34:19;11.30;99.90
14755;DHT22;7469;50.906;6.952;2023-12-29T04:36:47;11.30;99.90
14755;DHT22;7469;50.906;6.952;2023-12-29T04:39:15;11.30;99.90
14755;DHT22;7469;50.906;6.952;2023-12-29T04:41:44;11.20;99.90
14755;DHT22;7469;50.906;6.952;2023-12-29T04:44:12;11.30;99.90
14755;DHT22;7469;50.906;6.952;2023-12-29T04:46:40;11.20;99.90
14755;DHT22;7469;50.906;6.952;2023-12-29T04:49:09;11.30;99.90
14755;DHT22;7469;50.906;6.952;2023-12-29T04:51:37;11.30;99.90
14755;DHT22;7469;50.906;6.952;2023-12-29T04:54:06;11.30;99.90
14755;DHT22;7469;50.906;6.952;2023-12-29T04:56:34;11.30;99.90
14755;DHT22;7469;50.906;6.952;2023-12-29T04:59:03;11.30;99.90
14755;DHT22;7469;50.906;6.952;2023-12-29T05:01:31;11.30;99.90
14755;DHT22;7469;50.906;6.952;2023-12-29T05:03:59;11.30;99.90
14755;DHT22;7469;50.906;6.952;2023-12-29T05:06:27;11.30;99.90
14755;DHT22;7469;50.906;6.952;2023-12-29T05:08:55;11.30;99.90
14755;DHT22;7469;50.906;6.952;2023-12-29T05:11:23;11.30;99.90
14755;DHT22;7469;50.906;6.952;2023-12-29T05:13:51;11.30;99.90
14755;DHT22;7469;50.906;6.952;2023-12-29T05:16:21;11.30;99.90
14755;DHT22;7469;50.906;6.952;2023-12-29T05:18:48;11.30;99.90
14755;DHT22;7469;50.906;6.952;2023-12-29T05:21:16;11.30;99.90
14755;DHT22;7469;50.906;6.952;2023-12-29T05:23:44;11.30;99.90
14755;DHT22;7469;50.906;6.952;2023-12-29T05:26:12;11.30;99.90
14755;DHT22;7469;50.906;6.952;2023-12-29T05:28:40;11.30;99.90
14755;DHT22;7469;50.906;6.952;2023-12-29T05:31:09;11.30;99.90
14755;DHT22;7469;50.906;6.952;2023-12-29T05:33:38;11.40;99.90
14755;DHT22;7469;50.906;6.952;2023-12-29T05:36:07;11.30;99.90
14755;DHT22;7469;50.906;6.952;2023-12-29T05:38:35;11.30;99.90
14755;DHT22;7469;50.906;6.952;2023-12-29T05:41:04;11.30;99.90
14755;DHT22;7469;50.906;6.952;2023-12-29T05:43:33;11.30;99.90
14755;DHT22;7469;50.906;6.952;2023-12-29T05:46:01;11.30;99.90
14755;DHT22;7469;50.906;6.952;2023-12-29T05:48:29;11.30;99.90
14755;DHT22;7469;50.906;6.952;2023-12-29T05:50:59;11.30;99.90
14755;DHT22;7469;50.906;6.952;2023-12-29T05:53:27;11.30;99.90
14755;DHT22;7469;50.906;6.952;2023-12-29T05:55:55;11.30;99.90
14755;DHT22;7469;50.906;6.952;2023-12-29T05:58:23;11.30;99.90
14755;DHT22;7469;50.906;6.952;2023-12-29T06:00:51;11.30;99.90
14755;DHT22;7469;50.906;6.952;2023-12-29T06:03:19;11.30;99.90
14755;DHT22;7469;50.906;6.952;2023-12-29T06:05:47;11.30;99.90
14755;DHT22;7469;50.906;6.952;2023-12-29T06:08:17;11.20;99.90
14755;DHT22;7469;50.906;6.952;2023-12-29T06:10:45;11.20;99.90
14755;DHT22;7469;50.906;6.952;2023-12-29T06:13:13;11.20;99.90
14755;DHT22;7469;50.906;6.952;2023-12-29T06:15:41;11.20;99.90
14755;DHT22;7469;50.906;6.952;2023-12-29T06:18:09;11.20;99.90
14755;DHT22;7469;50.906;6.952;2023-12-29T06:20:38;11.20;99.90
14755;DHT22;7469;50.906;6.952;2023-12-29T06:23:06;11.20;99.90
14755;DHT22;7469;50.906;6.952;2023-12-29T06:25:35;11.20;99.90
14755;DHT22;7469;50.906;6.952;2023-12-29T06:28:05;11.20;99.90
14755;DHT22;7469;50.906;6.952;2023-12-29T06:30:34;11.10;99.90
14755;DHT22;7469;50.906;6.952;2023-12-29T06:33:02;11.20;99.90
14755;DHT22;7469;50.906;6.952;2023-12-29T06:35:30;11.10;99.90
14755;DHT22;7469;50.906;6.952;2023-12-29T06:37:58;11.10;99.90
14755;DHT22;7469;50.906;6.952;2023-12-29T06:40:26;11.10;99.90
14755;DHT22;7469;50.906;6.952;2023-12-29T06:42:56;11.10;99.90
14755;DHT22;7469;50.906;6.952;2023-12-29T06:45:24;11.10;99.90
14755;DHT22;7469;50.906;6.952;2023-12-29T06:47:52;11.10;99.90
14755;DHT22;7469;50.906;6.952;2023-12-29T06:50:20;11.10;99.90
14755;DHT22;7469;50.906;6.952;2023-12-29T06:52:48;11.10;99.90
14755;DHT22;7469;50.906;6.952;2023-12-29T06:55:16;11.10;99.90
14755;DHT22;7469;50.906;6.952;2023-12-29T06:57:44;11.10;99.90
14755;DHT22;7469;50.906;6.952;2023-12-29T07:00:14;11.10;99.90
14755;DHT22;7469;50.906;6.952;2023-12-29T07:02:42;11.10;99.90
14755;DHT22;7469;50.906;6.952;2023-12-29T07:05:10;11.10;99.90
14755;DHT22;7469;50.906;6.952;2023-12-29T07:07:38;11.10;99.90
14755;DHT22;7469;50.906;6.952;2023-12-29T07:10:07;11.10;99.90
14755;DHT22;7469;50.906;6.952;2023-12-29T07:12:35;11.10;99.90
14755;DHT22;7469;50.906;6.952;2023-12-29T07:15:04;11.10;99.90
14755;DHT22;7469;50.906;6.952;2023-12-29T07:17:33;11.10;99.90
14755;DHT22;7469;50.906;6.952;2023-12-29T07:20:01;11.00;99.90
14755;DHT22;7469;50.906;6.952;2023-12-29T07:22:29;11.00;99.90
14755;DHT22;7469;50.906;6.952;2023-12-29T07:24:57;11.00;99.90
14755;DHT22;7469;50.906;6.952;2023-12-29T07:27:25;11.00;99.90
14755;DHT22;7469;50.906;6.952;2023-12-29T07:29:53;11.10;99.90
14755;DHT22;7469;50.906;6.952;2023-12-29T07:32:21;11.10;99.90
14755;DHT22;7469;50.906;6.952;2023-12-29T07:34:51;11.10;99.90
14755;DHT22;7469;50.906;6.952;2023-12-29T07:37:19;11.00;99.90
14755;DHT22;7469;50.906;6.952;2023-12-29T07:39:47;11.00;99.90
14755;DHT22;7469;50.906;6.952;2023-12-29T07:42:15;11.00;99.90
14755;DHT22;7469;50.906;6.952;2023-12-29T07:44:44;11.00;99.90
14755;DHT22;7469;50.906;6.952;2023-12-29T07:47:12;11.00;99.90
14755;DHT22;7469;50.906;6.952;2023-12-29T07:49:41;11.00;99.90
14755;DHT22;7469;50.906;6.952;2023-12-29T07:52:11;11.00;99.90
14755;DHT22;7469;50.906;6.952;2023-12-29T07:54:40;11.10;99.90
14755;DHT22;7469;50.906;6.952;2023-12-29T07:57:08;11.00;99.90
14755;DHT22;7469;50.906;6.952;2023-12-29T07:59:36;11.00;99.90
14755;DHT22;7469;50.906;6.952;2023-12-29T08:02:04;11.10;99.90
14755;DHT22;7469;50.906;6.952;2023-12-29T08:04:33;11.00;99.90
14755;DHT22;7469;50.906;6.952;2023-12-29T08:07:01;11.10;99.90
14755;DHT22;7469;50.906;6.952;2023-12-29T08:09:31;11.10;99.90
14755;DHT22;7469;50.906;6.952;2023-12-29T08:11:59;11.00;99.90
14755;DHT22;7469;50.906;6.952;2023-12-29T08:14:27;11.00;99.90
14755;DHT22;7469;50.906;6.952;2023-12-29T08:16:55;11.00;99.90
14755;DHT22;7469;50.906;6.952;2023-12-29T08:19:23;11.00;99.90
14755;DHT22;7469;50.906;6.952;2023-12-29T08:21:51;11.00;99.90
14755;DHT22;7469;50.906;6.952;2023-12-29T08:24:20;10.90;99.90
14755;DHT22;7469;50.906;6.952;2023-12-29T08:26:49;10.90;99.90
14755;DHT22;7469;50.906;6.952;2023-12-29T08:29:18;10.80;99.90
14755;DHT22;7469;50.906;6.952;2023-12-29T08:31:48;10.70;99.90
14755;DHT22;7469;50.906;6.952;2023-12-29T08:34:16;10.60;99.90
14755;DHT22;7469;50.906;6.952;2023-12-29T08:36:46;10.40;99.90
14755;DHT22;7469;50.906;6.952;2023-12-29T08:39:14;10.40;99.90
14755;DHT22;7469;50.906;6.952;2023-12-29T08:41:42;10.30;99.90
14755;DHT22;7469;50.906;6.952;2023-12-29T08:44:12;10.30;99.90
14755;DHT22;7469;50.906;6.952;2023-12-29T08:46:41;10.40;99.90
14755;DHT22;7469;50.906;6.952;2023-12-29T08:49:09;10.30;99.90
14755;DHT22;7469;50.906;6.952;2023-12-29T08:51:37;10.40;99.90
14755;DHT22;7469;50.906;6.952;2023-12-29T08:54:05;10.40;99.90
14755;DHT22;7469;50.906;6.952;2023-12-29T08:56:34;10.40;99.90
14755;DHT22;7469;50.906;6.952;2023-12-29T08:59:02;10.40;99.90
14755;DHT22;7469;50.906;6.952;2023-12-29T09:01:31;10.40;99.90
14755;DHT22;7469;50.906;6.952;2023-12-29T09:04:00;10.40;99.90
14755;DHT22;7469;50.906;6.952;2023-12-29T09:06:28;10.40;99.90
14755;DHT22;7469;50.906;6.952;2023-12-29T09:08:56;10.40;99.90
14755;DHT22;7469;50.906;6.952;2023-12-29T09:11:24;10.40;99.90
14755;DHT22;7469;50.906;6.952;2023-12-29T09:13:53;10.40;99.90
14755;DHT22;7469;50.906;6.952;2023-12-29T09:16:21;10.40;99.90
14755;DHT22;7469;50.906;6.952;2023-12-29T09:18:50;10.50;99.90
14755;DHT22;7469;50.906;6.952;2023-12-29T09:21:18;10.50;99.90
14755;DHT22;7469;50.906;6.952;2023-12-29T09:23:46;10.50;99.90
14755;DHT22;7469;50.906;6.952;2023-12-29T09:26:16;10.50;99.90
14755;DHT22;7469;50.906;6.952;2023-12-29T09:28:44;10.50;99.90
14755;DHT22;7469;50.906;6.952;2023-12-29T09:31:12;10.50;99.90
14755;DHT22;7469;50.906;6.952;2023-12-29T09:33:40;10.50;99.90
14755;DHT22;7469;50.906;6.952;2023-12-29T09:36:10;10.50;99.90
14755;DHT22;7469;50.906;6.952;2023-12-29T09:38:38;10.40;99.90
14755;DHT22;7469;50.906;6.952;2023-12-29T09:41:11;10.50;99.90
14755;DHT22;7469;50.906;6.952;2023-12-29T09:43:41;10.50;99.90
14755;DHT22;7469;50.906;6.952;2023-12-29T09:46:12;10.50;99.90
14755;DHT22;7469;50.906;6.952;2023-12-29T09:48:45;10.60;99.90
14755;DHT22;7469;50.906;6.952;2023-12-29T09:51:15;10.60;99.90
14755;DHT22;7469;50.906;6.952;2023-12-29T09:53:44;10.70;99.90
14755;DHT22;7469;50.906;6.952;2023-12-29T09:56:13;10.70;99.90
14755;DHT22;7469;50.906;6.952;2023-12-29T09:58:41;10.70;99.90
14755;DHT22;7469;50.906;6.952;2023-12-29T10:01:11;10.70;99.90
14755;DHT22;7469;50.906;6.952;2023-12-29T10:03:40;10.70;99.90
14755;DHT22;7469;50.906;6.952;2023-12-29T10:06:08;10.80;99.90
14755;DHT22;7469;50.906;6.952;2023-12-29T10:08:45;10.80;99.90
14755;DHT22;7469;50.906;6.952;2023-12-29T10:11:14;10.80;99.90
14755;DHT22;7469;50.906;6.952;2023-12-29T10:13:46;10.90;99.90
14755;DHT22;7469;50.906;6.952;2023-12-29T10:16:19;10.90;99.90
14755;DHT22;7469;50.906;6.952;2023-12-29T10:19:00;11.00;99.90
14755;DHT22;7469;50.906;6.952;2023-12-29T10:21:36;11.00;99.90
14755;DHT22;7469;50.906;6.952;2023-12-29T10:24:16;11.10;99.90
14755;DHT22;7469;50.906;6.952;2023-12-29T10:26:45;11.00;99.90
14755;DHT22;7469;50.906;6.952;2023-12-29T10:29:14;11.10;99.90
14755;DHT22;7469;50.906;6.952;2023-12-29T10:31:44;11.10;99.90
14755;DHT22;7469;50.906;6.952;2023-12-29T10:34:20;11.10;99.90
14755;DHT22;7469;50.906;6.952;2023-12-29T10:36:56;11.10;99.90
14755;DHT22;7469;50.906;6.952;2023-12-29T10:39:25;11.20;99.90
14755;DHT22;7469;50.906;6.952;2023-12-29T10:42:03;11.20;99.90
14755;DHT22;7469;50.906;6.952;2023-12-29T10:44:33;11.20;99.90
14755;DHT22;7469;50.906;6.952;2023-12-29T10:47:07;11.20;99.90
14755;DHT22;7469;50.906;6.952;2023-12-29T10:49:37;11.30;99.90
14755;DHT22;7469;50.906;6.952;2023-12-29T10:52:11;11.30;99.90
14755;DHT22;7469;50.906;6.952;2023-12-29T10:54:42;11.30;99.90
14755;DHT22;7469;50.906;6.952;2023-12-29T10:57:12;11.30;99.90
14755;DHT22;7469;50.906;6.952;2023-12-29T10:59:40;11.40;99.90
14755;DHT22;7469;50.906;6.952;2023-12-29T11:02:11;11.30;99.90
14755;DHT22;7469;50.906;6.952;2023-12-29T11:04:42;11.40;99.90
14755;DHT22;7469;50.906;6.952;2023-12-29T11:07:12;11.40;99.90
14755;DHT22;7469;50.906;6.952;2023-12-29T11:09:42;11.40;99.90
14755;DHT22;7469;50.906;6.952;2023-12-29T11:12:11;11.40;99.90
14755;DHT22;7469;50.906;6.952;2023-12-29T11:14:41;11.50;99.90
14755;DHT22;7469;50.906;6.952;2023-12-29T11:17:13;11.50;99.90
14755;DHT22;7469;50.906;6.952;2023-12-29T11:19:43;11.50;99.90
14755;DHT22;7469;50.906;6.952;2023-12-29T11:22:14;11.50;99.90
14755;DHT22;7469;50.906;6.952;2023-12-29T11:24:47;11.60;99.90
14755;DHT22;7469;50.906;6.952;2023-12-29T11:27:16;11.60;99.90
14755;DHT22;7469;50.906;6.952;2023-12-29T11:29:46;11.70;99.90
14755;DHT22;7469;50.906;6.952;2023-12-29T11:32:18;11.70;99.90
14755;DHT22;7469;50.906;6.952;2023-12-29T11:34:54;11.70;99.90
14755;DHT22;7469;50.906;6.952;2023-12-29T11:37:28;11.80;99.90
14755;DHT22;7469;50.906;6.952;2023-12-29T11:40:09;11.80;99.90
14755;DHT22;7469;50.906;6.952;2023-12-29T11:42:40;11.80;99.90
14755;DHT22;7469;50.906;6.952;2023-12-29T11:45:25;11.90;99.90
14755;DHT22;7469;50.906;6.952;2023-12-29T11:47:55;11.90;99.90
14755;DHT22;7469;50.906;6.952;2023-12-29T11:50:28;11.90;99.90
14755;DHT22;7469;50.906;6.952;2023-12-29T11:52:57;11.90;99.90
14755;DHT22;7469;50.906;6.952;2023-12-29T11:55:34;11.90;99.90
14755;DHT22;7469;50.906;6.952;2023-12-29T11:58:03;12.00;99.90
14755;DHT22;7469;50.906;6.952;2023-12-29T12:00:45;12.00;99.90
14755;DHT22;7469;50.906;6.952;2023-12-29T12:03:18;12.00;99.90
14755;DHT22;7469;50.906;6.952;2023-12-29T12:05:51;12.00;99.90
14755;DHT22;7469;50.906;6.952;2023-12-29T12:08:29;12.00;99.90
14755;DHT22;7469;50.906;6.952;2023-12-29T12:14:05;12.10;99.90
14755;DHT22;7469;50.906;6.952;2023-12-29T12:16:51;12.10;99.90
14755;DHT22;7469;50.906;6.952;2023-12-29T12:19:22;12.20;99.90
14755;DHT22;7469;50.906;6.952;2023-12-29T12:21:54;12.20;99.90
14755;DHT22;7469;50.906;6.952;2023-12-29T12:24:23;12.20;99.90
14755;DHT22;7469;50.906;6.952;2023-12-29T12:26:54;12.20;99.90
14755;DHT22;7469;50.906;6.952;2023-12-29T12:29:22;12.20;99.90
14755;DHT22;7469;50.906;6.952;2023-12-29T12:31:53;12.30;99.90
14755;DHT22;7469;50.906;6.952;2023-12-29T12:34:21;12.30;99.90
14755;DHT22;7469;50.906;6.952;2023-12-29T12:36:52;12.30;99.90
14755;DHT22;7469;50.906;6.952;2023-12-29T12:39:21;12.30;99.90
14755;DHT22;7469;50.906;6.952;2023-12-29T12:41:50;12.30;99.90
14755;DHT22;7469;50.906;6.952;2023-12-29T12:44:19;12.20;99.90
14755;DHT22;7469;50.906;6.952;2023-12-29T12:46:50;12.20;99.90
14755;DHT22;7469;50.906;6.952;2023-12-29T12:49:20;12.10;99.90
14755;DHT22;7469;50.906;6.952;2023-12-29T12:51:49;12.20;99.90
14755;DHT22;7469;50.906;6.952;2023-12-29T12:54:18;12.20;99.90
14755;DHT22;7469;50.906;6.952;2023-12-29T12:56:46;12.20;99.90
14755;DHT22;7469;50.906;6.952;2023-12-29T12:59:15;12.20;99.90
14755;DHT22;7469;50.906;6.952;2023-12-29T13:01:45;12.20;99.90
14755;DHT22;7469;50.906;6.952;2023-12-29T13:04:14;12.20;99.90
14755;DHT22;7469;50.906;6.952;2023-12-29T13:06:43;12.20;99.90
14755;DHT22;7469;50.906;6.952;2023-12-29T13:09:15;12.20;99.90
14755;DHT22;7469;50.906;6.952;2023-12-29T13:11:45;12.30;99.90
14755;DHT22;7469;50.906;6.952;2023-12-29T13:14:20;12.30;99.90
14755;DHT22;7469;50.906;6.952;2023-12-29T13:16:50;12.30;99.90
14755;DHT22;7469;50.906;6.952;2023-12-29T13:19:20;12.30;99.90
14755;DHT22;7469;50.906;6.952;2023-12-29T13:21:51;12.30;99.90
14755;DHT22;7469;50.906;6.952;2023-12-29T13:24:21;12.30;99.90
14755;DHT22;7469;50.906;6.952;2023-12-29T13:26:51;12.30;99.90
14755;DHT22;7469;50.906;6.952;2023-12-29T13:29:21;12.30;99.90
14755;DHT22;7469;50.906;6.952;2023-12-29T13:31:53;12.30;99.90
14755;DHT22;7469;50.906;6.952;2023-12-29T13:34:28;12.20;99.90
14755;DHT22;7469;50.906;6.952;2023-12-29T13:37:03;12.20;99.90
14755;DHT22;7469;50.906;6.952;2023-12-29T13:39:39;12.20;99.90
14755;DHT22;7469;50.906;6.952;2023-12-29T13:42:10;12.20;99.90
14755;DHT22;7469;50.906;6.952;2023-12-29T13:44:42;12.20;99.90
14755;DHT22;7469;50.906;6.952;2023-12-29T13:47:12;12.20;99.90
14755;DHT22;7469;50.906;6.952;2023-12-29T13:49:41;12.20;99.90
14755;DHT22;7469;50.906;6.952;2023-12-29T13:52:10;12.20;99.90
14755;DHT22;7469;50.906;6.952;2023-12-29T13:54:41;12.20;99.90
14755;DHT22;7469;50.906;6.952;2023-12-29T13:57:10;12.20;99.90
14755;DHT22;7469;50.906;6.952;2023-12-29T13:59:39;12.20;99.90
14755;DHT22;7469;50.906;6.952;2023-12-29T14:02:28;12.20;99.90
14755;DHT22;7469;50.906;6.952;2023-12-29T14:05:11;12.20;99.90
14755;DHT22;7469;50.906;6.952;2023-12-29T14:07:45;12.00;99.90
14755;DHT22;7469;50.906;6.952;2023-12-29T14:10:14;11.90;99.90
14755;DHT22;7469;50.906;6.952;2023-12-29T14:12:42;11.70;99.90
14755;DHT22;7469;50.906;6.952;2023-12-29T14:15:10;11.60;99.90
14755;DHT22;7469;50.906;6.952;2023-12-29T14:17:40;11.50;99.90
14755;DHT22;7469;50.906;6.952;2023-12-29T14:20:08;11.40;99.90
14755;DHT22;7469;50.906;6.952;2023-12-29T14:22:37;11.30;99.90
14755;DHT22;7469;50.906;6.952;2023-12-29T14:25:07;11.30;99.90
14755;DHT22;7469;50.906;6.952;2023-12-29T14:27:36;11.30;99.90
14755;DHT22;7469;50.906;6.952;2023-12-29T14:30:17;11.30;99.90
14755;DHT22;7469;50.906;6.952;2023-12-29T14:32:55;11.30;99.90
14755;DHT22;7469;50.906;6.952;2023-12-29T14:35:23;11.40;99.90
14755;DHT22;7469;50.906;6.952;2023-12-29T14:37:51;11.40;99.90
14755;DHT22;7469;50.906;6.952;2023-12-29T14:40:19;11.30;99.90
14755;DHT22;7469;50.906;6.952;2023-12-29T14:42:47;11.40;99.90
14755;DHT22;7469;50.906;6.952;2023-12-29T14:45:15;11.30;99.90
14755;DHT22;7469;50.906;6.952;2023-12-29T14:47:43;11.30;99.90
14755;DHT22;7469;50.906;6.952;2023-12-29T14:50:15;11.30;99.90
14755;DHT22;7469;50.906;6.952;2023-12-29T14:52:43;11.20;99.90
14755;DHT22;7469;50.906;6.952;2023-12-29T14:55:11;11.20;99.90
14755;DHT22;7469;50.906;6.952;2023-12-29T14:57:39;11.20;99.90
14755;DHT22;7469;50.906;6.952;2023-12-29T15:00:08;11.20;99.90
14755;DHT22;7469;50.906;6.952;2023-12-29T15:02:36;11.20;99.90
14755;DHT22;7469;50.906;6.952;2023-12-29T15:05:04;11.20;99.90
14755;DHT22;7469;50.906;6.952;2023-12-29T15:07:34;11.20;99.90
14755;DHT22;7469;50.906;6.952;2023-12-29T15:10:02;11.20;99.90
14755;DHT22;7469;50.906;6.952;2023-12-29T15:12:30;11.20;99.90
14755;DHT22;7469;50.906;6.952;2023-12-29T15:14:58;11.20;99.90
14755;DHT22;7469;50.906;6.952;2023-12-29T15:17:26;11.20;99.90
14755;DHT22;7469;50.906;6.952;2023-12-29T15:19:54;11.20;99.90
14755;DHT22;7469;50.906;6.952;2023-12-29T15:22:22;11.20;99.90
14755;DHT22;7469;50.906;6.952;2023-12-29T15:24:54;11.20;99.90
14755;DHT22;7469;50.906;6.952;2023-12-29T15:27:22;11.20;99.90
14755;DHT22;7469;50.906;6.952;2023-12-29T15:29:51;11.20;99.90
14755;DHT22;7469;50.906;6.952;2023-12-29T15:32:19;11.30;99.90
14755;DHT22;7469;50.906;6.952;2023-12-29T15:34:47;11.20;99.90
14755;DHT22;7469;50.906;6.952;2023-12-29T15:37:15;11.20;99.90
14755;DHT22;7469;50.906;6.952;2023-12-29T15:39:45;11.10;99.90
14755;DHT22;7469;50.906;6.952;2023-12-29T15:42:15;11.10;99.90
14755;DHT22;7469;50.906;6.952;2023-12-29T15:44:43;11.10;99.90
14755;DHT22;7469;50.906;6.952;2023-12-29T15:47:11;11.20;99.90
14755;DHT22;7469;50.906;6.952;2023-12-29T15:49:39;11.20;99.90
14755;DHT22;7469;50.906;6.952;2023-12-29T15:52:07;11.20;99.90
14755;DHT22;7469;50.906;6.952;2023-12-29T15:54:36;11.10;99.90
14755;DHT22;7469;50.906;6.952;2023-12-29T15:57:04;11.10;99.90
14755;DHT22;7469;50.906;6.952;2023-12-29T15:59:36;11.10;99.90
14755;DHT22;7469;50.906;6.952;2023-12-29T16:02:04;11.10;99.90